sensor_id;sensor_type;location;lat;lon;timestamp;P1;durP1;ratioP1;P2;durP2;ratioP2
67352;SDS011;54238;52.278;21.056;2023-06-04T00:00:38;14.10;;;7.70;;
67352;SDS011;54238;52.278;21.056;2023-06-04T00:03:31;12.20;;;6.10;;
67352;SDS011;54238;52.278;21.056;2023-06-04T00:06:01;18.40;;;6.80;;
67352;SDS011;54238;52.278;21.056;2023-06-04T00:08:33;15.10;;;8.40;;
67352;SDS011;54238;52.278;21.056;2023-06-04T00:11:03;15.60;;;7.80;;
67352;SDS011;54238;52.278;21.056;2023-06-04T00:13:32;17.50;;;7.50;;
67352;SDS011;54238;52.278;21.056;2023-06-04T00:16:04;17.20;;;8.20;;
67352;SDS011;54238;52.278;21.056;2023-06-04T00:18:31;13.20;;;7.60;;
67352;SDS011;54238;52.278;21.056;2023-06-04T00:21:01;13.20;;;7.40;;
67352;SDS011;54238;52.278;21.056;2023-06-04T00:23:28;16.70;;;7.80;;
67352;SDS011;54238;52.278;21.056;2023-06-04T00:25:58;14.90;;;7.80;;
67352;SDS011;54238;52.278;21.056;2023-06-04T00:28:29;14.20;;;8.00;;
67352;SDS011;54238;52.278;21.056;2023-06-04T00:30:56;22.50;;;9.20;;
67352;SDS011;54238;52.278;21.056;2023-06-04T00:33:26;15.60;;;7.90;;
67352;SDS011;54238;52.278;21.056;2023-06-04T00:35:53;15.40;;;7.90;;
67352;SDS011;54238;52.278;21.056;2023-06-04T00:38:23;20.40;;;7.40;;
67352;SDS011;54238;52.278;21.056;2023-06-04T00:40:52;15.50;;;7.20;;
67352;SDS011;54238;52.278;21.056;2023-06-04T00:43:24;13.70;;;6.70;;
67352;SDS011;54238;52.278;21.056;2023-06-04T00:46:00;12.80;;;6.60;;
67352;SDS011;54238;52.278;21.056;2023-06-04T00:48:31;11.90;;;5.80;;
67352;SDS011;54238;52.278;21.056;2023-06-04T00:50:59;15.30;;;6.70;;
67352;SDS011;54238;52.278;21.056;2023-06-04T00:53:29;11.60;;;5.60;;
67352;SDS011;54238;52.278;21.056;2023-06-04T00:55:59;10.40;;;5.60;;
67352;SDS011;54238;52.278;21.056;2023-06-04T00:58:26;11.20;;;5.60;;
67352;SDS011;54238;52.278;21.056;2023-06-04T01:00:59;9.50;;;5.40;;
67352;SDS011;54238;52.278;21.056;2023-06-04T01:03:37;11.10;;;5.40;;
67352;SDS011;54238;52.278;21.056;2023-06-04T01:08:59;9.60;;;5.90;;
67352;SDS011;54238;52.278;21.056;2023-06-04T01:11:35;8.60;;;5.60;;
67352;SDS011;54238;52.278;21.056;2023-06-04T01:14:04;15.50;;;6.30;;
67352;SDS011;54238;52.278;21.056;2023-06-04T01:20:16;10.20;;;5.70;;
67352;SDS011;54238;52.278;21.056;2023-06-04T01:26:09;14.10;;;5.80;;
67352;SDS011;54238;52.278;21.056;2023-06-04T01:34:43;8.90;;;4.80;;
67352;SDS011;54238;52.278;21.056;2023-06-04T01:37:15;15.80;;;6.00;;
67352;SDS011;54238;52.278;21.056;2023-06-04T01:39:45;15.50;;;5.80;;
67352;SDS011;54238;52.278;21.056;2023-06-04T01:42:15;8.40;;;5.30;;
67352;SDS011;54238;52.278;21.056;2023-06-04T01:44:45;8.80;;;5.20;;
67352;SDS011;54238;52.278;21.056;2023-06-04T01:47:12;15.20;;;5.90;;
67352;SDS011;54238;52.278;21.056;2023-06-04T01:49:39;13.90;;;6.40;;
67352;SDS011;54238;52.278;21.056;2023-06-04T01:52:11;11.40;;;5.90;;
67352;SDS011;54238;52.278;21.056;2023-06-04T01:54:39;10.50;;;5.10;;
67352;SDS011;54238;52.278;21.056;2023-06-04T01:57:10;12.90;;;6.00;;
67352;SDS011;54238;52.278;21.056;2023-06-04T01:59:41;9.30;;;4.80;;
67352;SDS011;54238;52.278;21.056;2023-06-04T02:02:11;13.00;;;5.00;;
67352;SDS011;54238;52.278;21.056;2023-06-04T02:04:43;13.90;;;6.30;;
67352;SDS011;54238;52.278;21.056;2023-06-04T02:07:15;12.50;;;6.30;;
67352;SDS011;54238;52.278;21.056;2023-06-04T02:09:48;15.60;;;7.50;;
67352;SDS011;54238;52.278;21.056;2023-06-04T02:12:22;15.60;;;7.40;;
67352;SDS011;54238;52.278;21.056;2023-06-04T02:14:54;11.30;;;6.00;;
67352;SDS011;54238;52.278;21.056;2023-06-04T02:17:26;11.50;;;6.10;;
67352;SDS011;54238;52.278;21.056;2023-06-04T02:20:01;10.20;;;6.20;;
67352;SDS011;54238;52.278;21.056;2023-06-04T02:22:31;14.20;;;7.30;;
67352;SDS011;54238;52.278;21.056;2023-06-04T02:25:01;14.00;;;6.80;;
67352;SDS011;54238;52.278;21.056;2023-06-04T02:27:31;16.00;;;7.90;;
67352;SDS011;54238;52.278;21.056;2023-06-04T02:30:04;14.90;;;6.70;;
67352;SDS011;54238;52.278;21.056;2023-06-04T02:32:33;14.40;;;6.80;;
67352;SDS011;54238;52.278;21.056;2023-06-04T02:35:03;17.10;;;7.20;;
67352;SDS011;54238;52.278;21.056;2023-06-04T02:37:36;10.70;;;6.10;;
67352;SDS011;54238;52.278;21.056;2023-06-04T02:40:03;14.00;;;6.90;;
67352;SDS011;54238;52.278;21.056;2023-06-04T02:43:03;15.80;;;6.50;;
67352;SDS011;54238;52.278;21.056;2023-06-04T02:45:32;14.50;;;6.30;;
67352;SDS011;54238;52.278;21.056;2023-06-04T02:48:00;15.90;;;6.40;;
67352;SDS011;54238;52.278;21.056;2023-06-04T02:50:27;13.70;;;5.60;;
67352;SDS011;54238;52.278;21.056;2023-06-04T02:52:54;10.90;;;5.70;;
67352;SDS011;54238;52.278;21.056;2023-06-04T02:55:22;15.40;;;6.00;;
67352;SDS011;54238;52.278;21.056;2023-06-04T02:57:52;10.00;;;5.70;;
67352;SDS011;54238;52.278;21.056;2023-06-04T03:00:19;13.00;;;6.50;;
67352;SDS011;54238;52.278;21.056;2023-06-04T03:02:48;11.80;;;6.10;;
67352;SDS011;54238;52.278;21.056;2023-06-04T03:05:20;9.50;;;5.90;;
67352;SDS011;54238;52.278;21.056;2023-06-04T03:07:53;11.40;;;5.60;;
67352;SDS011;54238;52.278;21.056;2023-06-04T03:10:22;12.20;;;5.80;;
67352;SDS011;54238;52.278;21.056;2023-06-04T03:12:54;12.10;;;5.70;;
67352;SDS011;54238;52.278;21.056;2023-06-04T03:15:26;11.20;;;5.60;;
67352;SDS011;54238;52.278;21.056;2023-06-04T03:17:56;11.30;;;5.20;;
67352;SDS011;54238;52.278;21.056;2023-06-04T03:20:26;8.90;;;5.00;;
67352;SDS011;54238;52.278;21.056;2023-06-04T03:22:53;11.10;;;5.30;;
67352;SDS011;54238;52.278;21.056;2023-06-04T03:25:23;13.40;;;6.00;;
67352;SDS011;54238;52.278;21.056;2023-06-04T03:27:52;11.40;;;5.30;;
67352;SDS011;54238;52.278;21.056;2023-06-04T03:30:24;8.90;;;5.10;;
67352;SDS011;54238;52.278;21.056;2023-06-04T03:32:54;8.90;;;4.90;;
67352;SDS011;54238;52.278;21.056;2023-06-04T03:35:24;12.10;;;5.80;;
67352;SDS011;54238;52.278;21.056;2023-06-04T03:37:52;13.20;;;6.10;;
67352;SDS011;54238;52.278;21.056;2023-06-04T03:40:19;10.90;;;5.50;;
67352;SDS011;54238;52.278;21.056;2023-06-04T03:42:51;9.20;;;5.20;;
67352;SDS011;54238;52.278;21.056;2023-06-04T03:45:21;13.80;;;5.60;;
67352;SDS011;54238;52.278;21.056;2023-06-04T03:47:52;9.00;;;5.10;;
67352;SDS011;54238;52.278;21.056;2023-06-04T03:50:21;9.30;;;5.10;;
67352;SDS011;54238;52.278;21.056;2023-06-04T03:52:56;9.40;;;5.30;;
67352;SDS011;54238;52.278;21.056;2023-06-04T03:57:55;10.20;;;4.70;;
67352;SDS011;54238;52.278;21.056;2023-06-04T04:00:26;10.00;;;5.00;;
67352;SDS011;54238;52.278;21.056;2023-06-04T04:02:56;9.30;;;4.50;;
67352;SDS011;54238;52.278;21.056;2023-06-04T04:05:26;12.60;;;5.00;;
67352;SDS011;54238;52.278;21.056;2023-06-04T04:08:21;10.00;;;4.60;;
67352;SDS011;54238;52.278;21.056;2023-06-04T04:10:48;10.10;;;5.70;;
67352;SDS011;54238;52.278;21.056;2023-06-04T04:13:16;9.90;;;4.80;;
67352;SDS011;54238;52.278;21.056;2023-06-04T04:15:44;11.70;;;5.10;;
67352;SDS011;54238;52.278;21.056;2023-06-04T04:18:16;12.90;;;5.40;;
67352;SDS011;54238;52.278;21.056;2023-06-04T04:20:43;10.60;;;5.30;;
67352;SDS011;54238;52.278;21.056;2023-06-04T04:23:15;8.60;;;4.80;;
67352;SDS011;54238;52.278;21.056;2023-06-04T04:25:43;11.60;;;5.50;;
67352;SDS011;54238;52.278;21.056;2023-06-04T04:28:13;8.10;;;4.80;;
67352;SDS011;54238;52.278;21.056;2023-06-04T04:30:44;10.50;;;4.90;;
67352;SDS011;54238;52.278;21.056;2023-06-04T04:33:11;6.80;;;4.20;;
67352;SDS011;54238;52.278;21.056;2023-06-04T04:35:42;10.10;;;5.50;;
67352;SDS011;54238;52.278;21.056;2023-06-04T04:38:11;9.90;;;5.80;;
67352;SDS011;54238;52.278;21.056;2023-06-04T04:40:42;10.00;;;4.90;;
67352;SDS011;54238;52.278;21.056;2023-06-04T04:43:14;12.70;;;5.30;;
67352;SDS011;54238;52.278;21.056;2023-06-04T04:45:43;10.20;;;5.00;;
67352;SDS011;54238;52.278;21.056;2023-06-04T04:48:11;8.40;;;4.90;;
67352;SDS011;54238;52.278;21.056;2023-06-04T04:50:40;10.60;;;5.00;;
67352;SDS011;54238;52.278;21.056;2023-06-04T04:53:10;11.90;;;4.80;;
67352;SDS011;54238;52.278;21.056;2023-06-04T04:55:39;11.60;;;5.10;;
67352;SDS011;54238;52.278;21.056;2023-06-04T04:58:08;9.10;;;4.80;;
67352;SDS011;54238;52.278;21.056;2023-06-04T05:00:35;7.90;;;4.70;;
67352;SDS011;54238;52.278;21.056;2023-06-04T05:03:04;9.50;;;4.80;;
67352;SDS011;54238;52.278;21.056;2023-06-04T05:05:32;12.10;;;4.90;;
67352;SDS011;54238;52.278;21.056;2023-06-04T05:08:03;8.50;;;4.60;;
67352;SDS011;54238;52.278;21.056;2023-06-04T05:10:32;9.50;;;4.60;;
67352;SDS011;54238;52.278;21.056;2023-06-04T05:13:10;7.40;;;4.70;;
67352;SDS011;54238;52.278;21.056;2023-06-04T05:15:42;7.40;;;4.50;;
67352;SDS011;54238;52.278;21.056;2023-06-04T05:18:14;6.30;;;4.00;;
67352;SDS011;54238;52.278;21.056;2023-06-04T05:20:43;10.10;;;4.80;;
67352;SDS011;54238;52.278;21.056;2023-06-04T05:23:15;10.20;;;5.40;;
67352;SDS011;54238;52.278;21.056;2023-06-04T05:25:43;9.40;;;4.40;;
67352;SDS011;54238;52.278;21.056;2023-06-04T05:31:09;9.70;;;3.90;;
67352;SDS011;54238;52.278;21.056;2023-06-04T05:33:43;9.00;;;4.10;;
67352;SDS011;54238;52.278;21.056;2023-06-04T05:36:17;7.20;;;3.90;;
67352;SDS011;54238;52.278;21.056;2023-06-04T05:38:47;14.10;;;3.90;;
67352;SDS011;54238;52.278;21.056;2023-06-04T05:41:24;8.40;;;3.40;;
67352;SDS011;54238;52.278;21.056;2023-06-04T05:43:57;10.40;;;3.70;;
67352;SDS011;54238;52.278;21.056;2023-06-04T05:46:27;8.20;;;3.30;;
67352;SDS011;54238;52.278;21.056;2023-06-04T05:49:04;7.00;;;3.10;;
67352;SDS011;54238;52.278;21.056;2023-06-04T05:51:36;8.70;;;3.40;;
67352;SDS011;54238;52.278;21.056;2023-06-04T05:54:07;5.00;;;2.90;;
67352;SDS011;54238;52.278;21.056;2023-06-04T05:56:37;6.10;;;3.30;;
67352;SDS011;54238;52.278;21.056;2023-06-04T05:59:04;7.00;;;2.80;;
67352;SDS011;54238;52.278;21.056;2023-06-04T06:02:10;5.10;;;2.40;;
67352;SDS011;54238;52.278;21.056;2023-06-04T06:04:40;4.90;;;2.00;;
67352;SDS011;54238;52.278;21.056;2023-06-04T06:07:07;3.90;;;2.00;;
67352;SDS011;54238;52.278;21.056;2023-06-04T06:09:37;2.80;;;2.00;;
67352;SDS011;54238;52.278;21.056;2023-06-04T06:12:07;2.40;;;1.80;;
67352;SDS011;54238;52.278;21.056;2023-06-04T06:14:40;3.10;;;1.90;;
67352;SDS011;54238;52.278;21.056;2023-06-04T06:17:11;3.90;;;1.90;;
67352;SDS011;54238;52.278;21.056;2023-06-04T06:19:43;4.20;;;2.00;;
67352;SDS011;54238;52.278;21.056;2023-06-04T06:22:12;4.10;;;1.80;;
67352;SDS011;54238;52.278;21.056;2023-06-04T06:24:44;4.00;;;2.00;;
67352;SDS011;54238;52.278;21.056;2023-06-04T06:27:11;3.20;;;1.60;;
67352;SDS011;54238;52.278;21.056;2023-06-04T06:29:42;4.70;;;1.60;;
67352;SDS011;54238;52.278;21.056;2023-06-04T06:32:16;4.90;;;1.60;;
67352;SDS011;54238;52.278;21.056;2023-06-04T06:34:45;2.70;;;1.90;;
67352;SDS011;54238;52.278;21.056;2023-06-04T06:37:12;3.60;;;1.70;;
67352;SDS011;54238;52.278;21.056;2023-06-04T06:39:46;3.30;;;1.50;;
67352;SDS011;54238;52.278;21.056;2023-06-04T06:42:18;8.30;;;1.60;;
67352;SDS011;54238;52.278;21.056;2023-06-04T06:44:48;3.20;;;1.50;;
67352;SDS011;54238;52.278;21.056;2023-06-04T06:47:17;2.00;;;1.20;;
67352;SDS011;54238;52.278;21.056;2023-06-04T06:49:47;10.30;;;1.50;;
67352;SDS011;54238;52.278;21.056;2023-06-04T06:52:16;5.30;;;1.40;;
67352;SDS011;54238;52.278;21.056;2023-06-04T06:54:48;4.50;;;1.60;;
67352;SDS011;54238;52.278;21.056;2023-06-04T06:57:18;7.00;;;1.60;;
67352;SDS011;54238;52.278;21.056;2023-06-04T06:59:45;5.20;;;1.70;;
67352;SDS011;54238;52.278;21.056;2023-06-04T07:02:12;4.70;;;1.80;;
67352;SDS011;54238;52.278;21.056;2023-06-04T07:04:41;4.60;;;1.70;;
67352;SDS011;54238;52.278;21.056;2023-06-04T07:07:10;2.70;;;1.30;;
67352;SDS011;54238;52.278;21.056;2023-06-04T07:09:48;3.40;;;1.30;;
67352;SDS011;54238;52.278;21.056;2023-06-04T07:12:15;7.00;;;1.10;;
67352;SDS011;54238;52.278;21.056;2023-06-04T07:14:44;5.00;;;1.10;;
67352;SDS011;54238;52.278;21.056;2023-06-04T07:17:14;3.10;;;1.80;;
67352;SDS011;54238;52.278;21.056;2023-06-04T07:19:41;5.20;;;1.80;;
67352;SDS011;54238;52.278;21.056;2023-06-04T07:22:08;5.80;;;1.80;;
67352;SDS011;54238;52.278;21.056;2023-06-04T07:24:38;3.80;;;1.30;;
67352;SDS011;54238;52.278;21.056;2023-06-04T07:27:16;3.10;;;1.70;;
67352;SDS011;54238;52.278;21.056;2023-06-04T07:29:44;1.70;;;1.20;;
67352;SDS011;54238;52.278;21.056;2023-06-04T07:32:17;3.50;;;1.70;;
67352;SDS011;54238;52.278;21.056;2023-06-04T07:34:49;2.80;;;1.30;;
67352;SDS011;54238;52.278;21.056;2023-06-04T07:37:21;3.70;;;1.40;;
67352;SDS011;54238;52.278;21.056;2023-06-04T07:39:48;7.60;;;1.60;;
67352;SDS011;54238;52.278;21.056;2023-06-04T07:42:16;3.90;;;1.50;;
67352;SDS011;54238;52.278;21.056;2023-06-04T07:47:39;1.60;;;1.30;;
67352;SDS011;54238;52.278;21.056;2023-06-04T07:50:08;9.50;;;1.50;;
67352;SDS011;54238;52.278;21.056;2023-06-04T07:55:37;3.60;;;1.50;;
67352;SDS011;54238;52.278;21.056;2023-06-04T07:58:07;4.30;;;1.10;;
67352;SDS011;54238;52.278;21.056;2023-06-04T08:00:39;2.70;;;1.20;;
67352;SDS011;54238;52.278;21.056;2023-06-04T08:03:13;2.10;;;1.20;;
67352;SDS011;54238;52.278;21.056;2023-06-04T08:05:47;6.20;;;1.30;;
67352;SDS011;54238;52.278;21.056;2023-06-04T08:08:14;3.60;;;1.00;;
67352;SDS011;54238;52.278;21.056;2023-06-04T08:10:42;8.20;;;1.40;;
67352;SDS011;54238;52.278;21.056;2023-06-04T08:13:09;4.20;;;1.10;;
67352;SDS011;54238;52.278;21.056;2023-06-04T08:18:39;2.70;;;1.20;;
67352;SDS011;54238;52.278;21.056;2023-06-04T08:21:11;3.00;;;1.10;;
67352;SDS011;54238;52.278;21.056;2023-06-04T08:23:52;5.00;;;1.10;;
67352;SDS011;54238;52.278;21.056;2023-06-04T08:26:21;5.90;;;1.20;;
67352;SDS011;54238;52.278;21.056;2023-06-04T08:28:48;3.50;;;1.30;;
67352;SDS011;54238;52.278;21.056;2023-06-04T08:31:16;1.30;;;1.00;;
67352;SDS011;54238;52.278;21.056;2023-06-04T08:33:49;3.80;;;1.20;;
67352;SDS011;54238;52.278;21.056;2023-06-04T08:36:27;2.40;;;1.00;;
67352;SDS011;54238;52.278;21.056;2023-06-04T08:38:59;3.50;;;1.20;;
67352;SDS011;54238;52.278;21.056;2023-06-04T08:41:34;3.60;;;1.40;;
67352;SDS011;54238;52.278;21.056;2023-06-04T08:44:10;4.50;;;1.30;;
67352;SDS011;54238;52.278;21.056;2023-06-04T08:46:44;1.50;;;1.00;;
67352;SDS011;54238;52.278;21.056;2023-06-04T08:49:18;4.50;;;1.60;;
67352;SDS011;54238;52.278;21.056;2023-06-04T08:51:50;1.70;;;1.40;;
67352;SDS011;54238;52.278;21.056;2023-06-04T08:54:19;3.70;;;1.70;;
67352;SDS011;54238;52.278;21.056;2023-06-04T08:56:49;4.10;;;1.20;;
67352;SDS011;54238;52.278;21.056;2023-06-04T08:59:23;3.10;;;1.20;;
67352;SDS011;54238;52.278;21.056;2023-06-04T09:01:55;6.50;;;1.10;;
67352;SDS011;54238;52.278;21.056;2023-06-04T09:04:23;2.20;;;1.30;;
67352;SDS011;54238;52.278;21.056;2023-06-04T09:06:56;1.20;;;1.10;;
67352;SDS011;54238;52.278;21.056;2023-06-04T09:09:33;2.10;;;1.00;;
67352;SDS011;54238;52.278;21.056;2023-06-04T09:12:09;1.40;;;0.90;;
67352;SDS011;54238;52.278;21.056;2023-06-04T09:14:37;3.10;;;1.10;;
67352;SDS011;54238;52.278;21.056;2023-06-04T09:17:07;2.70;;;1.20;;
67352;SDS011;54238;52.278;21.056;2023-06-04T09:19:34;4.30;;;1.10;;
67352;SDS011;54238;52.278;21.056;2023-06-04T09:22:03;1.80;;;1.20;;
67352;SDS011;54238;52.278;21.056;2023-06-04T09:24:40;6.30;;;1.20;;
67352;SDS011;54238;52.278;21.056;2023-06-04T09:27:14;1.20;;;0.90;;
67352;SDS011;54238;52.278;21.056;2023-06-04T09:29:53;2.20;;;1.30;;
67352;SDS011;54238;52.278;21.056;2023-06-04T09:32:29;3.10;;;1.10;;
67352;SDS011;54238;52.278;21.056;2023-06-04T09:35:16;3.90;;;1.20;;
67352;SDS011;54238;52.278;21.056;2023-06-04T09:37:57;3.20;;;1.20;;
67352;SDS011;54238;52.278;21.056;2023-06-04T09:40:37;1.90;;;1.10;;
67352;SDS011;54238;52.278;21.056;2023-06-04T09:43:05;4.80;;;1.20;;
67352;SDS011;54238;52.278;21.056;2023-06-04T09:45:34;4.20;;;1.20;;
67352;SDS011;54238;52.278;21.056;2023-06-04T09:48:04;4.50;;;1.10;;
67352;SDS011;54238;52.278;21.056;2023-06-04T09:50:33;3.10;;;1.30;;
67352;SDS011;54238;52.278;21.056;2023-06-04T09:53:01;1.30;;;1.10;;
67352;SDS011;54238;52.278;21.056;2023-06-04T09:55:41;1.80;;;1.00;;
67352;SDS011;54238;52.278;21.056;2023-06-04T09:58:10;2.60;;;1.40;;
67352;SDS011;54238;52.278;21.056;2023-06-04T10:00:41;5.40;;;1.40;;
67352;SDS011;54238;52.278;21.056;2023-06-04T10:03:15;1.90;;;1.10;;
67352;SDS011;54238;52.278;21.056;2023-06-04T10:05:47;2.90;;;1.40;;
67352;SDS011;54238;52.278;21.056;2023-06-04T10:08:17;2.40;;;1.00;;
67352;SDS011;54238;52.278;21.056;2023-06-04T10:10:46;1.90;;;1.10;;
67352;SDS011;54238;52.278;21.056;2023-06-04T10:13:22;1.80;;;1.10;;
67352;SDS011;54238;52.278;21.056;2023-06-04T10:15:54;1.50;;;1.00;;
67352;SDS011;54238;52.278;21.056;2023-06-04T10:18:29;2.10;;;1.10;;
67352;SDS011;54238;52.278;21.056;2023-06-04T10:20:58;2.40;;;1.10;;
67352;SDS011;54238;52.278;21.056;2023-06-04T10:23:30;2.50;;;1.00;;
67352;SDS011;54238;52.278;21.056;2023-06-04T10:26:01;3.40;;;1.30;;
67352;SDS011;54238;52.278;21.056;2023-06-04T10:28:34;1.50;;;1.00;;
67352;SDS011;54238;52.278;21.056;2023-06-04T10:31:04;2.20;;;1.00;;
67352;SDS011;54238;52.278;21.056;2023-06-04T10:33:36;2.90;;;1.10;;
67352;SDS011;54238;52.278;21.056;2023-06-04T10:36:19;5.50;;;1.20;;
67352;SDS011;54238;52.278;21.056;2023-06-04T10:38:53;6.60;;;1.20;;
67352;SDS011;54238;52.278;21.056;2023-06-04T10:41:23;3.60;;;1.20;;
67352;SDS011;54238;52.278;21.056;2023-06-04T10:44:01;3.40;;;1.40;;
67352;SDS011;54238;52.278;21.056;2023-06-04T10:46:39;3.90;;;1.20;;
67352;SDS011;54238;52.278;21.056;2023-06-04T10:49:09;2.20;;;1.00;;
67352;SDS011;54238;52.278;21.056;2023-06-04T10:51:41;3.80;;;1.20;;
67352;SDS011;54238;52.278;21.056;2023-06-04T10:54:10;1.20;;;0.90;;
67352;SDS011;54238;52.278;21.056;2023-06-04T10:56:48;1.50;;;1.30;;
67352;SDS011;54238;52.278;21.056;2023-06-04T10:59:21;1.60;;;1.10;;
67352;SDS011;54238;52.278;21.056;2023-06-04T11:02:02;4.30;;;1.40;;
67352;SDS011;54238;52.278;21.056;2023-06-04T11:04:37;2.70;;;1.30;;
67352;SDS011;54238;52.278;21.056;2023-06-04T11:07:07;4.00;;;1.90;;
67352;SDS011;54238;52.278;21.056;2023-06-04T11:09:47;3.10;;;1.40;;
67352;SDS011;54238;52.278;21.056;2023-06-04T11:12:19;2.90;;;1.40;;
67352;SDS011;54238;52.278;21.056;2023-06-04T11:14:56;2.20;;;1.40;;
67352;SDS011;54238;52.278;21.056;2023-06-04T11:17:27;5.20;;;1.20;;
67352;SDS011;54238;52.278;21.056;2023-06-04T11:19:59;3.10;;;1.20;;
67352;SDS011;54238;52.278;21.056;2023-06-04T11:22:28;1.80;;;0.90;;
67352;SDS011;54238;52.278;21.056;2023-06-04T11:24:58;1.70;;;1.00;;
67352;SDS011;54238;52.278;21.056;2023-06-04T11:30:01;2.50;;;1.10;;
67352;SDS011;54238;52.278;21.056;2023-06-04T11:32:31;1.50;;;1.20;;
67352;SDS011;54238;52.278;21.056;2023-06-04T11:35:05;2.50;;;1.10;;
67352;SDS011;54238;52.278;21.056;2023-06-04T11:37:35;2.40;;;1.10;;
67352;SDS011;54238;52.278;21.056;2023-06-04T11:40:15;2.50;;;1.20;;
67352;SDS011;54238;52.278;21.056;2023-06-04T11:42:51;1.70;;;1.00;;
67352;SDS011;54238;52.278;21.056;2023-06-04T11:45:22;2.00;;;1.20;;
67352;SDS011;54238;52.278;21.056;2023-06-04T11:47:52;4.40;;;1.10;;
67352;SDS011;54238;52.278;21.056;2023-06-04T11:50:31;4.60;;;1.00;;
67352;SDS011;54238;52.278;21.056;2023-06-04T11:52:59;4.70;;;1.70;;
67352;SDS011;54238;52.278;21.056;2023-06-04T11:55:27;5.90;;;1.40;;
67352;SDS011;54238;52.278;21.056;2023-06-04T11:57:54;3.30;;;1.10;;
67352;SDS011;54238;52.278;21.056;2023-06-04T12:00:33;5.20;;;1.10;;
67352;SDS011;54238;52.278;21.056;2023-06-04T12:03:03;3.10;;;1.40;;
67352;SDS011;54238;52.278;21.056;2023-06-04T12:05:55;3.90;;;1.00;;
67352;SDS011;54238;52.278;21.056;2023-06-04T12:08:22;1.80;;;0.90;;
67352;SDS011;54238;52.278;21.056;2023-06-04T12:10:52;5.30;;;1.30;;
67352;SDS011;54238;52.278;21.056;2023-06-04T12:13:22;2.10;;;1.30;;
67352;SDS011;54238;52.278;21.056;2023-06-04T12:15:54;2.40;;;1.20;;
67352;SDS011;54238;52.278;21.056;2023-06-04T12:18:24;3.80;;;1.10;;
67352;SDS011;54238;52.278;21.056;2023-06-04T12:20:52;5.30;;;1.50;;
67352;SDS011;54238;52.278;21.056;2023-06-04T12:23:29;8.10;;;1.20;;
67352;SDS011;54238;52.278;21.056;2023-06-04T12:25:59;4.20;;;1.10;;
67352;SDS011;54238;52.278;21.056;2023-06-04T12:29:11;1.90;;;1.20;;
67352;SDS011;54238;52.278;21.056;2023-06-04T12:31:44;3.20;;;1.20;;
67352;SDS011;54238;52.278;21.056;2023-06-04T12:34:15;1.70;;;1.10;;
67352;SDS011;54238;52.278;21.056;2023-06-04T12:36:47;1.60;;;1.30;;
67352;SDS011;54238;52.278;21.056;2023-06-04T12:39:16;2.70;;;1.10;;
67352;SDS011;54238;52.278;21.056;2023-06-04T12:41:50;2.60;;;1.20;;
67352;SDS011;54238;52.278;21.056;2023-06-04T12:44:17;1.60;;;1.00;;
67352;SDS011;54238;52.278;21.056;2023-06-04T12:46:52;4.30;;;1.20;;
67352;SDS011;54238;52.278;21.056;2023-06-04T12:49:22;5.00;;;1.20;;
67352;SDS011;54238;52.278;21.056;2023-06-04T12:54:37;3.50;;;1.20;;
67352;SDS011;54238;52.278;21.056;2023-06-04T13:00:02;3.90;;;1.20;;
67352;SDS011;54238;52.278;21.056;2023-06-04T13:02:31;1.70;;;1.20;;
67352;SDS011;54238;52.278;21.056;2023-06-04T13:04:58;2.60;;;1.10;;
67352;SDS011;54238;52.278;21.056;2023-06-04T13:07:25;1.60;;;1.10;;
67352;SDS011;54238;52.278;21.056;2023-06-04T13:10:05;2.50;;;1.20;;
67352;SDS011;54238;52.278;21.056;2023-06-04T13:15:28;2.20;;;1.20;;
67352;SDS011;54238;52.278;21.056;2023-06-04T13:18:01;2.40;;;1.20;;
67352;SDS011;54238;52.278;21.056;2023-06-04T13:20:30;5.90;;;1.20;;
67352;SDS011;54238;52.278;21.056;2023-06-04T13:22:57;4.20;;;1.20;;
67352;SDS011;54238;52.278;21.056;2023-06-04T13:25:24;4.30;;;1.30;;
67352;SDS011;54238;52.278;21.056;2023-06-04T13:27:56;3.90;;;1.50;;
67352;SDS011;54238;52.278;21.056;2023-06-04T13:30:24;2.10;;;1.30;;
67352;SDS011;54238;52.278;21.056;2023-06-04T13:32:54;2.60;;;1.20;;
67352;SDS011;54238;52.278;21.056;2023-06-04T13:35:29;2.60;;;1.20;;
67352;SDS011;54238;52.278;21.056;2023-06-04T13:37:59;4.10;;;1.20;;
67352;SDS011;54238;52.278;21.056;2023-06-04T13:40:33;4.30;;;1.90;;
67352;SDS011;54238;52.278;21.056;2023-06-04T13:43:02;3.00;;;1.10;;
67352;SDS011;54238;52.278;21.056;2023-06-04T13:45:29;2.60;;;1.20;;
67352;SDS011;54238;52.278;21.056;2023-06-04T13:48:01;1.90;;;1.00;;
67352;SDS011;54238;52.278;21.056;2023-06-04T13:50:33;4.80;;;1.20;;
67352;SDS011;54238;52.278;21.056;2023-06-04T13:53:02;2.00;;;1.10;;
67352;SDS011;54238;52.278;21.056;2023-06-04T13:55:32;3.40;;;1.30;;
67352;SDS011;54238;52.278;21.056;2023-06-04T13:58:01;1.20;;;1.00;;
67352;SDS011;54238;52.278;21.056;2023-06-04T14:00:33;1.70;;;1.20;;
67352;SDS011;54238;52.278;21.056;2023-06-04T14:03:03;2.90;;;1.20;;
67352;SDS011;54238;52.278;21.056;2023-06-04T14:05:32;3.40;;;1.50;;
67352;SDS011;54238;52.278;21.056;2023-06-04T14:08:02;4.50;;;1.70;;
67352;SDS011;54238;52.278;21.056;2023-06-04T14:10:31;4.40;;;1.30;;
67352;SDS011;54238;52.278;21.056;2023-06-04T14:13:05;4.60;;;1.40;;
67352;SDS011;54238;52.278;21.056;2023-06-04T14:15:32;2.20;;;1.10;;
67352;SDS011;54238;52.278;21.056;2023-06-04T14:18:03;1.70;;;1.00;;
67352;SDS011;54238;52.278;21.056;2023-06-04T14:20:32;6.90;;;1.30;;
67352;SDS011;54238;52.278;21.056;2023-06-04T14:23:01;2.50;;;1.50;;
67352;SDS011;54238;52.278;21.056;2023-06-04T14:25:31;2.70;;;1.30;;
67352;SDS011;54238;52.278;21.056;2023-06-04T14:28:05;2.60;;;1.30;;
67352;SDS011;54238;52.278;21.056;2023-06-04T14:30:33;5.90;;;1.80;;
67352;SDS011;54238;52.278;21.056;2023-06-04T14:33:04;2.50;;;1.40;;
67352;SDS011;54238;52.278;21.056;2023-06-04T14:35:37;3.40;;;1.10;;
67352;SDS011;54238;52.278;21.056;2023-06-04T14:38:06;3.50;;;1.00;;
67352;SDS011;54238;52.278;21.056;2023-06-04T14:40:36;1.70;;;1.10;;
67352;SDS011;54238;52.278;21.056;2023-06-04T14:43:06;3.00;;;1.10;;
67352;SDS011;54238;52.278;21.056;2023-06-04T14:45:38;3.70;;;1.10;;
67352;SDS011;54238;52.278;21.056;2023-06-04T14:48:08;4.80;;;1.10;;
67352;SDS011;54238;52.278;21.056;2023-06-04T14:53:16;3.40;;;1.20;;
67352;SDS011;54238;52.278;21.056;2023-06-04T14:55:48;3.00;;;1.10;;
67352;SDS011;54238;52.278;21.056;2023-06-04T14:58:18;1.90;;;1.20;;
67352;SDS011;54238;52.278;21.056;2023-06-04T15:00:48;2.60;;;1.20;;
67352;SDS011;54238;52.278;21.056;2023-06-04T15:03:15;1.70;;;1.20;;
67352;SDS011;54238;52.278;21.056;2023-06-04T15:05:45;1.80;;;1.30;;
67352;SDS011;54238;52.278;21.056;2023-06-04T15:08:14;2.70;;;1.20;;
67352;SDS011;54238;52.278;21.056;2023-06-04T15:10:41;4.00;;;1.30;;
67352;SDS011;54238;52.278;21.056;2023-06-04T15:13:11;1.90;;;1.10;;
67352;SDS011;54238;52.278;21.056;2023-06-04T15:15:48;2.50;;;1.20;;
67352;SDS011;54238;52.278;21.056;2023-06-04T15:18:17;4.70;;;1.30;;
67352;SDS011;54238;52.278;21.056;2023-06-04T15:20:45;2.60;;;1.30;;
67352;SDS011;54238;52.278;21.056;2023-06-04T15:23:17;5.80;;;1.40;;
67352;SDS011;54238;52.278;21.056;2023-06-04T15:25:44;2.40;;;1.40;;
67352;SDS011;54238;52.278;21.056;2023-06-04T15:28:11;7.20;;;1.80;;
67352;SDS011;54238;52.278;21.056;2023-06-04T15:30:38;2.20;;;1.40;;
67352;SDS011;54238;52.278;21.056;2023-06-04T15:33:06;6.50;;;1.60;;
67352;SDS011;54238;52.278;21.056;2023-06-04T15:35:38;2.10;;;1.20;;
67352;SDS011;54238;52.278;21.056;2023-06-04T15:38:08;8.10;;;1.50;;